Weather History for Three Rivers, MI

Change the Weather History Date:

Tuesday, January 28, 2014

  Actual Average Record
Temperature  
Mean Temperature -6 °F -  
Max Temperature 4 °F 30 °F 51 °F (1990)
Min Temperature -15 °F 15 °F -15 °F (2014)
Degree Days  
Heating Degree Days 70    
Moisture  
Dew Point -15 °F    
Average Humidity 65    
Maximum Humidity 78    
Minimum Humidity 44    
Precipitation  
Precipitation 0.00 in - - ()
Sea Level Pressure  
Sea Level Pressure 30.30 in    
Wind  
Wind Speed 8 mph (SW)    
Max Wind Speed 12 mph    
Max Gust Speed 16 mph    
Visibility 9 miles    
Events Snow    
Averages and records for this station are not official NWS values.
T = Trace of Precipitation, MM = Missing Value Source: NWS Daily Summary

Daily Weather History Graph

Daily Weather History Graph

Search for Another Location

Airport:

Trip Planner

Search our weather history database for the weather conditions in past years. The results will help you decide how hot, cold, wet, or windy it might be!

Date:

Astronomy

Jan. 28, 2014 Rise Set
Actual Time 7:58 AM EST 5:52 PM EST
Civil Twilight 7:29 AM EST 6:22 PM EST
Nautical Twilight 6:55 AM EST 6:55 PM EST
Astronomical Twilight 6:22 AM EST 7:28 PM EST
Moon 5:40 AM EST 3:41 PM EST
Length of Visible Light 10h 53m
Length of Day
9h 53m
Waning Crescent, 7% of the Moon is Illuminated
Jan 28
Waning Crescent
Jan 30
New
Feb 6
First Quarter
Feb 14
Full
Feb 22
Last Quarter

Hourly Weather History & Observations

Time (EST) Temp. Windchill Dew Point Humidity Pressure Visibility Wind Dir Wind Speed Gust Speed Precip Events Conditions
12:15 AM -8.1 °F -22.7 °F -14.3 °F 75% 30.32 in 10.0 mi SSW 6.9 mph - N/A Snow Light Snow
12:35 AM -8.5 °F -21.6 °F -13.7 °F 78% 30.32 in 7.0 mi SW 5.8 mph - N/A Snow Light Snow
12:55 AM -8.0 °F -21.0 °F -13.4 °F 77% 30.32 in 10.0 mi SW 5.8 mph - N/A Snow Light Snow
1:15 AM -8.9 °F -23.6 °F -15.0 °F 75% 30.32 in 10.0 mi SSW 6.9 mph - N/A Snow Light Snow
1:35 AM -11.7 °F -29.7 °F -17.3 °F 76% 30.32 in 10.0 mi SSW 9.2 mph - N/A   Clear
1:54 AM -10.3 °F -27.9 °F -15.5 °F 78% 30.32 in 10.0 mi SSW 9.2 mph - N/A Snow Light Snow
2:15 AM -10.7 °F -27.2 °F -16.4 °F 76% 30.32 in 10.0 mi SSW 8.1 mph - N/A   Clear
2:35 AM -11.6 °F -29.5 °F -17.5 °F 75% 30.32 in 10.0 mi SSW 9.2 mph - N/A Snow Light Snow
2:54 AM -10.8 °F -30.7 °F -16.8 °F 75% 30.33 in 10.0 mi SSW 11.5 mph - N/A   Clear
3:15 AM -10.5 °F -28.1 °F -16.4 °F 75% 30.34 in 10.0 mi SSW 9.2 mph - N/A   Clear
3:35 AM -10.3 °F -27.9 °F -16.4 °F 74% 30.34 in 10.0 mi SSW 9.2 mph - N/A   Clear
3:55 AM -10.5 °F -26.9 °F -17.0 °F 73% 30.33 in 10.0 mi SSW 8.1 mph - N/A   Clear
4:15 AM -11.2 °F -29.0 °F -17.5 °F 74% 30.33 in 10.0 mi SSW 9.2 mph - N/A   Clear
4:35 AM -11.4 °F -26.7 °F -17.7 °F 74% 30.32 in 10.0 mi SSW 6.9 mph - N/A Snow Light Snow
4:55 AM -11.9 °F -28.7 °F -18.2 °F 74% 30.32 in 7.0 mi SSW 8.1 mph - N/A Snow Light Snow
5:15 AM -13.0 °F -30.0 °F -19.3 °F 73% 30.32 in 10.0 mi South 8.1 mph - N/A Snow Light Snow
5:35 AM -11.6 °F -28.3 °F -17.7 °F 74% 30.33 in 7.0 mi SSW 8.1 mph - N/A Snow Light Snow
5:55 AM -12.3 °F -27.7 °F -18.8 °F 73% 30.34 in 10.0 mi SSW 6.9 mph - N/A   Mostly Cloudy
6:15 AM -13.7 °F -27.8 °F -20.0 °F 73% 30.34 in 10.0 mi South 5.8 mph - N/A Snow Light Snow
6:34 AM -13.9 °F -31.1 °F -19.8 °F 75% 30.34 in 10.0 mi South 8.1 mph - N/A   Clear
6:55 AM -15.9 °F -32.1 °F -22.5 °F 72% 30.34 in 10.0 mi SSW 6.9 mph - N/A   Clear
7:15 AM -15.7 °F -31.9 °F -21.5 °F 75% 30.35 in 10.0 mi SSW 6.9 mph - N/A   Clear
7:34 AM -14.3 °F -33.9 °F -20.2 °F 75% 30.35 in 10.0 mi South 10.4 mph - N/A   Clear
7:55 AM -13.9 °F -31.1 °F -20.0 °F 74% 30.36 in 10.0 mi SSW 8.1 mph - N/A   Clear
8:15 AM -14.6 °F -30.6 °F -20.6 °F 75% 30.35 in 1.5 mi South 6.9 mph - N/A Snow Light Snow
8:35 AM -14.1 °F -28.3 °F -20.2 °F 74% 30.35 in 1.8 mi SSW 5.8 mph - N/A Snow Light Snow
8:55 AM -13.2 °F -27.2 °F -19.3 °F 74% 30.35 in 3.0 mi SSW 5.8 mph - N/A Snow Light Snow
9:15 AM -11.6 °F -26.9 °F -17.9 °F 74% 30.36 in 10.0 mi South 6.9 mph - N/A   Clear
9:35 AM -11.0 °F -27.6 °F -17.5 °F 73% 30.36 in 10.0 mi South 8.1 mph - N/A   Clear
9:55 AM -9.0 °F -23.8 °F -15.5 °F 73% 30.36 in 10.0 mi SSW 6.9 mph - N/A   Clear
10:15 AM -5.1 °F -20.4 °F -12.3 °F 71% 30.36 in 7.0 mi SSW 8.1 mph - N/A   Clear
10:35 AM -6.7 °F -24.5 °F -14.8 °F 68% 30.36 in 10.0 mi South 10.4 mph - N/A   Clear
10:55 AM -5.8 °F -21.2 °F -14.1 °F 67% 30.36 in 7.0 mi South 8.1 mph - N/A   Clear
11:15 AM -3.5 °F -19.5 °F -12.3 °F 66% 30.36 in 7.0 mi SW 9.2 mph - N/A   Clear
11:35 AM -2.6 °F -17.3 °F -13.0 °F 61% 30.36 in 10.0 mi SSW 8.1 mph - N/A   Clear
11:55 AM -1.5 °F -17.1 °F -12.8 °F 59% 30.35 in 10.0 mi SSW 9.2 mph - N/A   Clear
12:14 PM -0.4 °F -16.7 °F -13.0 °F 55% 30.34 in 10.0 mi SW 10.4 mph - N/A   Clear
12:35 PM 0.5 °F -14.6 °F -13.5 °F 52% 30.34 in 10.0 mi WSW 9.2 mph - N/A   Clear
12:55 PM 1.4 °F -12.5 °F -12.8 °F 51% 30.32 in 10.0 mi SW 8.1 mph - N/A   Clear
1:15 PM 2.3 °F -11.4 °F -12.6 °F 50% 30.31 in 10.0 mi SW 8.1 mph - N/A   Clear
1:35 PM 3.6 °F -8.7 °F -12.1 °F 48% 30.30 in 10.0 mi WSW 6.9 mph - N/A   Clear
1:55 PM 3.9 °F -9.4 °F -13.0 °F 46% 30.30 in 10.0 mi WSW 8.1 mph - N/A   Clear
2:15 PM 3.6 °F -12.6 °F -13.5 °F 45% 30.30 in 10.0 mi SW 11.5 mph 16.1 mph N/A   Clear
2:35 PM 4.1 °F -9.2 °F -13.4 °F 44% 30.29 in 10.0 mi SW 8.1 mph - N/A   Clear
2:55 PM 3.9 °F -8.2 °F -13.5 °F 44% 30.28 in 10.0 mi SW 6.9 mph - N/A   Clear
3:15 PM 3.9 °F -8.2 °F -13.5 °F 44% 30.27 in 10.0 mi WSW 6.9 mph 10.4 mph N/A   Clear
3:35 PM 3.9 °F -11.3 °F -13.7 °F 44% 30.27 in 10.0 mi SW 10.4 mph - N/A   Clear
3:55 PM 3.4 °F -11.1 °F -13.9 °F 45% 30.26 in 10.0 mi SW 9.2 mph - N/A   Clear
4:15 PM 3.2 °F -13.1 °F -13.5 °F 46% 30.26 in 10.0 mi SW 11.5 mph - N/A   Clear
4:35 PM 3.0 °F -10.5 °F -13.5 °F 46% 30.26 in 10.0 mi SW 8.1 mph - N/A   Clear
4:54 PM 2.8 °F -9.5 °F -13.7 °F 46% 30.26 in 10.0 mi SW 6.9 mph - N/A   Clear
5:15 PM 1.8 °F -13.1 °F -13.5 °F 49% 30.26 in 10.0 mi SSW 9.2 mph - N/A   Clear
5:35 PM 1.8 °F -10.8 °F -13.4 °F 49% 30.26 in 10.0 mi WSW 6.9 mph - N/A   Clear
5:55 PM 0.7 °F -7.1 °F -13.2 °F 52% 30.25 in 10.0 mi SW 3.5 mph - N/A   Clear
6:15 PM -1.3 °F -14.5 °F -13.7 °F 56% 30.26 in 10.0 mi SW 6.9 mph - N/A   Clear
6:35 PM -1.5 °F -16.0 °F -13.7 °F 56% 30.25 in 10.0 mi SW 8.1 mph - N/A   Clear
6:55 PM -1.7 °F -13.5 °F -13.2 °F 58% 30.25 in 10.0 mi SW 5.8 mph - N/A   Clear
7:15 PM -2.2 °F -15.6 °F -13.0 °F 60% 30.26 in 10.0 mi SW 6.9 mph - N/A   Clear
7:35 PM -2.2 °F -15.6 °F -12.5 °F 62% 30.25 in 10.0 mi SW 6.9 mph - N/A   Clear
7:55 PM -2.4 °F -17.1 °F -12.1 °F 63% 30.24 in 10.0 mi SW 8.1 mph - N/A   Clear
8:15 PM -2.2 °F -15.6 °F -11.9 °F 63% 30.24 in 10.0 mi SW 6.9 mph - N/A   Clear
8:35 PM -2.6 °F -17.3 °F -11.7 °F 65% 30.23 in 10.0 mi SW 8.1 mph - N/A   Clear
8:55 PM -2.4 °F -15.8 °F -11.4 °F 66% 30.23 in 10.0 mi SW 6.9 mph - N/A   Clear
9:15 PM -3.1 °F -15.2 °F -11.6 °F 67% 30.22 in 10.0 mi WSW 5.8 mph - N/A   Clear
9:35 PM -3.3 °F -15.4 °F -11.4 °F 68% 30.22 in 10.0 mi WSW 5.8 mph - N/A   Clear
9:55 PM -3.6 °F -12.0 °F -11.6 °F 69% 30.22 in 10.0 mi SW 3.5 mph - N/A   Clear
10:15 PM -4.5 °F -18.4 °F -12.3 °F 69% 30.21 in 10.0 mi SW 6.9 mph - N/A   Clear
10:35 PM -7.1 °F -23.9 °F -14.1 °F 72% 30.21 in 10.0 mi SSW 9.2 mph - N/A   Clear
10:55 PM -5.8 °F -18.4 °F -12.5 °F 73% 30.21 in 10.0 mi SW 5.8 mph - N/A   Clear
11:14 PM -7.2 °F -23.0 °F -13.9 °F 73% 30.20 in 10.0 mi SSW 8.1 mph - N/A   Clear
11:35 PM -6.3 °F -21.9 °F -12.8 °F 73% 30.19 in 10.0 mi SSW 8.1 mph - N/A   Clear
11:55 PM -6.9 °F -22.5 °F -13.5 °F 73% 30.19 in 10.0 mi SW 8.1 mph - N/A   Clear